Dededo, Guam
Current Conditions -  °F | °C
As of 7:54 PM on Monday 22 Dec 2014 (Local Time) from PGUM Reporting Station
Few Clouds Few Clouds  
Wind Chill: 82°   Ceiling: Unl
Heat Index: 89°   Visibility: 10mi
Dew Point: 75°   Wind: 13mph
Humidity: 79%   Direction: 80°E
Pressure: 29.91"   Gusts: NA
Location:  13.51°N, 144.84°E
Report Text: PGUM 220954Z 08011KT 10SM FEW023 28/24 A2991 RMK AO2 SLP121 T02780239
Loading
Personal Weather Stations






























Interactive Weather Map New forecast layout! Learn more

10-Day Weather Forecast

Advertisements
Track Severe Weather on mobile